パラオ の空港の天気 - METARとTAF

パラオ国際空港 ( PTRO / ROR ) - パラオ アイライ州
飛行場実況気象(Metar)
観測時間01/19 19:52 PWT (01/19 10:52 UTC)
風向・風速南南東 4m/s 瞬間風速8m/s
視程10km以上
天気現象
全天の8割程度の雲 雲底高度 460m
全天の8割程度の雲 雲底高度 3660m
全天を覆う雲 雲底高度 9140m
気温26℃
湿度94%
気圧1007hPa
METARPTRO 191052Z 15007G15KT 14SM BKN015CB BKN120 OVC300 26/25 A2975 RMK CB ALQDS
過去の天気等 Google飛行場航空写真 Wunderground天気予報

過去48時間のMETAR

飛行場予報(TAF)
発表時間: 1/19 14:27 PWT (1/19 05:27 UTC)
予報対象時間: 19日15時 PWT ~ 20日15時 PWT
風向・風速南東 6m/s 瞬間風速 10m/s
視程10km以上
天気現象周辺でしゅう雨
全天の4割程度の雲 雲底高度 460m
全天の4割程度の雲 雲底高度 1220m
全天の8割程度の雲 雲底高度 3960m
19日18時 PWT ~ 19日21時 PWT に一時的に
視程8050m
天気現象弱いしゅう雨
全天の8割程度の雲 雲底高度 460m
PTRO 190527Z 1906/2006 13011G20KT P6SM VCSH SCT015 SCT040 BKN130
TEMPO 1909/1912 5SM -SHRA BKN015